UAE2526 LIRF-EGPH
Flight info
| Callsign | UAE2526 |
|---|---|
| Flight time | N/A |
| Altitude | 38000 |
| Route | NEMBO DCT ELKAP DCT GOVGO DCT BETEN DCT OTMUV DCT AOSTA DCT ORSUD DCT MOLUS DCT IBODI DCT GOTED DCT TRO DCT MOGLI DCT BETAX DCT MAMUL DCT HALIF UN601 INPIP |
| Aircraft | B77W/H-SDE1E2E3FGHIJ2J3J4J5M1RWXY/LB1D1 |
Departure
| Time | N/A |
|---|---|
| Airport | Rome–Fiumicino Leonardo da Vinci International Airport (LIRF) |
Arrival
| Time | 2026-04-21 13:55 |
|---|---|
| Airport | Edinburgh Airport (EGPH) |
| Time | Latitude | Longitude | Altitude | Speed | Heading |
|---|---|---|---|---|---|
| 2026-04-21 12:33 | 48.41158 | 3.81058 | 38141 ft | 445 kts | 326° |
| 2026-04-21 12:33 | 48.43783 | 3.78601 | 38138 ft | 445 kts | 326° |
| 2026-04-21 12:34 | 48.49021 | 3.73652 | 38135 ft | 445 kts | 326° |
| 2026-04-21 12:34 | 48.54255 | 3.68668 | 38142 ft | 445 kts | 326° |
| 2026-04-21 12:35 | 48.59453 | 3.63700 | 38141 ft | 445 kts | 326° |
| 2026-04-21 12:35 | 48.64603 | 3.58767 | 38155 ft | 446 kts | 326° |
| 2026-04-21 12:36 | 48.66400 | 3.57043 | 38157 ft | 446 kts | 326° |
| 2026-04-21 12:38 | 48.68420 | 3.55103 | 38158 ft | 447 kts | 326° |
| 2026-04-21 12:38 | 48.73179 | 3.50526 | 38152 ft | 447 kts | 326° |
| 2026-04-21 12:39 | 48.78432 | 3.45463 | 38148 ft | 447 kts | 326° |
| 2026-04-21 12:39 | 48.83675 | 3.40396 | 38156 ft | 447 kts | 326° |
| 2026-04-21 12:40 | 48.88919 | 3.35315 | 37806 ft | 449 kts | 326° |
| 2026-04-21 12:40 | 48.94078 | 3.30308 | 38041 ft | 432 kts | 326° |
| 2026-04-21 12:41 | 48.99063 | 3.25457 | 38137 ft | 419 kts | 325° |
| 2026-04-21 12:41 | 49.03917 | 3.20720 | 37946 ft | 413 kts | 326° |
| 2026-04-21 12:41 | 49.06333 | 3.18355 | 38162 ft | 417 kts | 326° |
| 2026-04-21 12:42 | 49.08797 | 3.15940 | 38188 ft | 424 kts | 326° |
| 2026-04-21 12:42 | 49.13850 | 3.10981 | 38183 ft | 438 kts | 326° |
| 2026-04-21 12:43 | 49.19042 | 3.05877 | 38160 ft | 447 kts | 326° |
| 2026-04-21 12:43 | 49.24289 | 3.00707 | 38173 ft | 450 kts | 326° |
| 2026-04-21 12:44 | 49.29431 | 2.95627 | 38184 ft | 452 kts | 326° |
| 2026-04-21 12:44 | 49.34717 | 2.90392 | 38186 ft | 453 kts | 326° |
| 2026-04-21 12:45 | 49.40006 | 2.85140 | 38206 ft | 452 kts | 326° |
| 2026-04-21 12:45 | 49.45272 | 2.79897 | 38210 ft | 451 kts | 326° |
| 2026-04-21 12:46 | 49.50528 | 2.74649 | 38229 ft | 450 kts | 326° |
| 2026-04-21 12:46 | 49.55783 | 2.69388 | 38204 ft | 450 kts | 326° |
| 2026-04-21 12:47 | 49.61025 | 2.64129 | 38192 ft | 449 kts | 326° |
| 2026-04-21 12:47 | 49.66257 | 2.58864 | 38211 ft | 448 kts | 326° |
| 2026-04-21 12:48 | 49.71481 | 2.53594 | 38216 ft | 448 kts | 326° |
| 2026-04-21 12:48 | 49.76707 | 2.48307 | 38227 ft | 449 kts | 326° |
| 2026-04-21 12:49 | 49.81937 | 2.43004 | 38218 ft | 450 kts | 326° |
| 2026-04-21 12:49 | 49.87179 | 2.37674 | 38225 ft | 451 kts | 326° |
| 2026-04-21 12:50 | 49.92386 | 2.32366 | 38232 ft | 451 kts | 326° |
| 2026-04-21 12:50 | 49.97638 | 2.26998 | 38220 ft | 452 kts | 326° |
| 2026-04-21 12:51 | 50.02888 | 2.21616 | 38230 ft | 452 kts | 326° |
| 2026-04-21 12:51 | 50.08137 | 2.16223 | 38236 ft | 452 kts | 326° |
| 2026-04-21 12:52 | 50.12540 | 2.11688 | 38231 ft | 453 kts | 325° |
| 2026-04-21 12:52 | 50.17785 | 2.06271 | 38254 ft | 452 kts | 326° |
| 2026-04-21 12:53 | 50.23035 | 2.00835 | 38250 ft | 453 kts | 326° |
| 2026-04-21 12:53 | 50.28149 | 1.95526 | 38241 ft | 453 kts | 326° |
| 2026-04-21 12:54 | 50.33399 | 1.90062 | 38242 ft | 453 kts | 326° |
| 2026-04-21 12:54 | 50.38680 | 1.84550 | 38244 ft | 453 kts | 325° |
| 2026-04-21 12:55 | 50.43884 | 1.79102 | 38266 ft | 453 kts | 325° |
| 2026-04-21 12:55 | 50.49125 | 1.73603 | 38265 ft | 453 kts | 325° |
| 2026-04-21 12:56 | 50.54357 | 1.68098 | 38274 ft | 453 kts | 325° |
| 2026-04-21 12:56 | 50.59602 | 1.62564 | 38271 ft | 454 kts | 325° |
| 2026-04-21 12:57 | 50.64844 | 1.57017 | 38270 ft | 454 kts | 325° |
| 2026-04-21 12:57 | 50.70088 | 1.51454 | 38274 ft | 455 kts | 325° |
| 2026-04-21 12:58 | 50.75335 | 1.45873 | 38276 ft | 455 kts | 325° |
| 2026-04-21 12:58 | 50.80581 | 1.40276 | 38279 ft | 455 kts | 325° |
| 2026-04-21 12:59 | 50.85828 | 1.34663 | 38288 ft | 455 kts | 325° |
| 2026-04-21 12:59 | 50.91072 | 1.29038 | 38295 ft | 456 kts | 325° |
| 2026-04-21 13:00 | 50.96319 | 1.23394 | 38296 ft | 456 kts | 325° |
| 2026-04-21 13:00 | 51.01563 | 1.17738 | 38301 ft | 456 kts | 325° |
| 2026-04-21 13:01 | 51.06811 | 1.12061 | 38301 ft | 456 kts | 325° |
| 2026-04-21 13:01 | 51.12064 | 1.06364 | 38302 ft | 457 kts | 325° |
| 2026-04-21 13:02 | 51.17310 | 1.00658 | 38305 ft | 457 kts | 325° |
| 2026-04-21 13:02 | 51.25086 | 0.92170 | 38352 ft | 456 kts | 324° |
| 2026-04-21 13:03 | 51.30321 | 0.86436 | 38377 ft | 456 kts | 324° |
| 2026-04-21 13:03 | 51.35551 | 0.80692 | 38328 ft | 456 kts | 324° |
| 2026-04-21 13:04 | 51.40780 | 0.74932 | 38321 ft | 456 kts | 324° |
| 2026-04-21 13:04 | 51.46009 | 0.69155 | 38322 ft | 456 kts | 324° |
| 2026-04-21 13:05 | 51.51225 | 0.63378 | 38318 ft | 456 kts | 324° |
| 2026-04-21 13:05 | 51.56442 | 0.57582 | 38318 ft | 456 kts | 324° |
| 2026-04-21 13:06 | 51.61632 | 0.51799 | 38324 ft | 457 kts | 324° |
| 2026-04-21 13:06 | 51.66869 | 0.45949 | 38314 ft | 458 kts | 324° |
| 2026-04-21 13:07 | 51.72097 | 0.40091 | 38340 ft | 458 kts | 324° |
| 2026-04-21 13:07 | 51.77326 | 0.34216 | 38342 ft | 458 kts | 324° |
| 2026-04-21 13:08 | 51.82555 | 0.28323 | 38363 ft | 459 kts | 324° |
| 2026-04-21 13:08 | 51.87793 | 0.22403 | 38356 ft | 460 kts | 324° |
| 2026-04-21 13:09 | 51.93045 | 0.16449 | 38348 ft | 461 kts | 324° |
| 2026-04-21 13:09 | 51.98299 | 0.10477 | 38346 ft | 461 kts | 324° |
| 2026-04-21 13:10 | 52.03552 | 0.04488 | 38347 ft | 462 kts | 324° |
| 2026-04-21 13:10 | 52.08703 | -0.01403 | 38326 ft | 462 kts | 324° |
| 2026-04-21 13:11 | 52.13957 | -0.07428 | 38343 ft | 462 kts | 324° |
| 2026-04-21 13:11 | 52.19203 | -0.13462 | 38343 ft | 462 kts | 324° |
| 2026-04-21 13:12 | 52.24445 | -0.19510 | 38344 ft | 461 kts | 324° |
| 2026-04-21 13:12 | 52.29684 | -0.25564 | 38360 ft | 461 kts | 325° |
| 2026-04-21 13:13 | 52.35200 | -0.30929 | 38365 ft | 462 kts | 331° |
| 2026-04-21 13:13 | 52.40873 | -0.35891 | 38375 ft | 463 kts | 331° |
| 2026-04-21 13:14 | 52.46514 | -0.40848 | 38370 ft | 463 kts | 331° |
| 2026-04-21 13:14 | 52.52180 | -0.45891 | 38377 ft | 463 kts | 330° |
| 2026-04-21 13:15 | 52.57830 | -0.50956 | 38376 ft | 463 kts | 330° |
| 2026-04-21 13:15 | 52.63477 | -0.56035 | 38373 ft | 462 kts | 330° |
| 2026-04-21 13:16 | 52.69117 | -0.61120 | 38373 ft | 462 kts | 330° |
| 2026-04-21 13:16 | 52.74751 | -0.66215 | 38379 ft | 462 kts | 330° |
| 2026-04-21 13:17 | 52.80382 | -0.71322 | 38396 ft | 461 kts | 330° |
| 2026-04-21 13:17 | 52.86002 | -0.76433 | 38409 ft | 461 kts | 330° |
| 2026-04-21 13:18 | 52.91624 | -0.81563 | 38406 ft | 462 kts | 330° |
| 2026-04-21 13:18 | 52.97243 | -0.86704 | 38381 ft | 461 kts | 330° |
| 2026-04-21 13:19 | 53.02850 | -0.91851 | 38413 ft | 462 kts | 330° |
| 2026-04-21 13:19 | 53.08476 | -0.97023 | 38409 ft | 462 kts | 330° |
| 2026-04-21 13:20 | 53.14013 | -1.02130 | 38368 ft | 464 kts | 330° |
| 2026-04-21 13:20 | 53.19648 | -1.07345 | 38415 ft | 463 kts | 330° |
| 2026-04-21 13:21 | 53.25271 | -1.12563 | 38424 ft | 462 kts | 330° |
| 2026-04-21 13:21 | 53.30861 | -1.17768 | 38421 ft | 463 kts | 330° |
| 2026-04-21 13:22 | 53.36528 | -1.23061 | 38413 ft | 464 kts | 330° |
| 2026-04-21 13:22 | 53.42169 | -1.28344 | 38423 ft | 465 kts | 330° |
| 2026-04-21 13:23 | 53.47816 | -1.33656 | 38428 ft | 465 kts | 330° |
| 2026-04-21 13:23 | 53.53417 | -1.38947 | 38398 ft | 465 kts | 330° |
| 2026-04-21 13:24 | 53.59061 | -1.44294 | 38432 ft | 465 kts | 330° |
| 2026-04-21 13:24 | 53.64686 | -1.49640 | 38434 ft | 464 kts | 330° |
| 2026-04-21 13:25 | 53.70313 | -1.55002 | 38433 ft | 464 kts | 330° |
| 2026-04-21 13:25 | 53.75824 | -1.60683 | 38418 ft | 464 kts | 325° |
| 2026-04-21 13:26 | 53.81100 | -1.67000 | 38428 ft | 466 kts | 324° |
| 2026-04-21 13:26 | 53.86376 | -1.73415 | 38424 ft | 468 kts | 324° |
| 2026-04-21 13:27 | 53.91675 | -1.79831 | 38428 ft | 468 kts | 324° |
| 2026-04-21 13:27 | 53.96989 | -1.86252 | 38427 ft | 470 kts | 324° |
| 2026-04-21 13:28 | 54.02310 | -1.92692 | 38430 ft | 471 kts | 324° |
| 2026-04-21 13:28 | 54.07638 | -1.99164 | 38434 ft | 470 kts | 324° |
| 2026-04-21 13:29 | 54.12859 | -2.05528 | 38420 ft | 470 kts | 324° |
| 2026-04-21 13:29 | 54.18183 | -2.12039 | 38426 ft | 470 kts | 324° |
| 2026-04-21 13:30 | 54.23488 | -2.18546 | 38434 ft | 469 kts | 324° |
| 2026-04-21 13:30 | 54.28785 | -2.25067 | 38440 ft | 470 kts | 324° |
| 2026-04-21 13:31 | 54.34099 | -2.31628 | 38454 ft | 472 kts | 324° |
| 2026-04-21 13:31 | 54.39384 | -2.38173 | 38353 ft | 473 kts | 324° |
| 2026-04-21 13:32 | 54.42043 | -2.41475 | 38162 ft | 470 kts | 324° |
| 2026-04-21 13:32 | 54.44732 | -2.44820 | 37711 ft | 472 kts | 324° |
| 2026-04-21 13:32 | 54.47361 | -2.48096 | 37374 ft | 471 kts | 323° |
| 2026-04-21 13:32 | 54.50001 | -2.51392 | 37086 ft | 470 kts | 323° |
| 2026-04-21 13:33 | 54.52637 | -2.54687 | 36921 ft | 466 kts | 323° |
| 2026-04-21 13:33 | 54.55260 | -2.57970 | 36551 ft | 466 kts | 323° |
| 2026-04-21 13:33 | 54.57888 | -2.61268 | 36160 ft | 466 kts | 323° |
| 2026-04-21 13:33 | 54.60518 | -2.64573 | 35256 ft | 472 kts | 323° |
| 2026-04-21 13:34 | 54.63168 | -2.67904 | 34368 ft | 465 kts | 322° |
| 2026-04-21 13:34 | 54.65729 | -2.71127 | 33244 ft | 445 kts | 322° |
| 2026-04-21 13:34 | 54.68179 | -2.74206 | 32260 ft | 426 kts | 322° |
| 2026-04-21 13:34 | 54.70634 | -2.77020 | 30849 ft | 433 kts | 327° |
| 2026-04-21 13:35 | 54.73405 | -2.79536 | 29480 ft | 462 kts | 333° |
| 2026-04-21 13:35 | 54.76331 | -2.82053 | 28668 ft | 476 kts | 334° |
| 2026-04-21 13:35 | 54.79311 | -2.84622 | 28238 ft | 479 kts | 334° |
| 2026-04-21 13:35 | 54.82298 | -2.87212 | 27929 ft | 480 kts | 334° |
| 2026-04-21 13:36 | 54.85277 | -2.89810 | 27666 ft | 479 kts | 334° |
| 2026-04-21 13:36 | 54.88264 | -2.92430 | 26713 ft | 483 kts | 334° |
| 2026-04-21 13:36 | 54.90244 | -2.94173 | 26160 ft | 481 kts | 334° |
| 2026-04-21 13:36 | 54.93227 | -2.96800 | 25316 ft | 479 kts | 335° |
| 2026-04-21 13:37 | 54.96193 | -2.99421 | 24479 ft | 477 kts | 335° |
| 2026-04-21 13:37 | 54.99035 | -3.01933 | 23691 ft | 473 kts | 335° |
| 2026-04-21 13:37 | 55.01941 | -3.04509 | 22880 ft | 467 kts | 335° |
| 2026-04-21 13:37 | 55.04824 | -3.07067 | 22067 ft | 464 kts | 335° |
| 2026-04-21 13:38 | 55.07689 | -3.09611 | 21263 ft | 460 kts | 335° |
| 2026-04-21 13:38 | 55.10515 | -3.12127 | 20654 ft | 452 kts | 335° |
| 2026-04-21 13:38 | 55.13286 | -3.14598 | 20163 ft | 443 kts | 335° |
| 2026-04-21 13:38 | 55.16002 | -3.17023 | 19665 ft | 435 kts | 335° |
| 2026-04-21 13:39 | 55.18668 | -3.19406 | 19254 ft | 426 kts | 335° |
| 2026-04-21 13:39 | 55.21283 | -3.21746 | 18793 ft | 419 kts | 335° |
| 2026-04-21 13:39 | 55.23861 | -3.24056 | 18266 ft | 412 kts | 335° |
| 2026-04-21 13:39 | 55.26439 | -3.26385 | 17978 ft | 422 kts | 335° |
| 2026-04-21 13:40 | 55.28958 | -3.29164 | 17890 ft | 429 kts | 327° |
| 2026-04-21 13:40 | 55.31359 | -3.32274 | 17468 ft | 427 kts | 325° |
| 2026-04-21 13:40 | 55.34463 | -3.36441 | 16830 ft | 420 kts | 324° |
| 2026-04-21 13:40 | 55.36020 | -3.38547 | 16520 ft | 416 kts | 324° |
| 2026-04-21 13:41 | 55.38287 | -3.41628 | 16029 ft | 402 kts | 324° |
| 2026-04-21 13:41 | 55.40426 | -3.44556 | 15427 ft | 377 kts | 324° |
| 2026-04-21 13:41 | 55.42426 | -3.47313 | 14847 ft | 355 kts | 324° |
| 2026-04-21 13:41 | 55.44313 | -3.49932 | 14257 ft | 336 kts | 325° |
| 2026-04-21 13:42 | 55.46161 | -3.52285 | 13622 ft | 320 kts | 328° |
| 2026-04-21 13:42 | 55.47965 | -3.54447 | 12984 ft | 308 kts | 329° |
| 2026-04-21 13:42 | 55.49717 | -3.56515 | 12350 ft | 299 kts | 329° |
| 2026-04-21 13:42 | 55.51450 | -3.58551 | 11806 ft | 303 kts | 329° |
| 2026-04-21 13:43 | 55.53231 | -3.60629 | 11251 ft | 310 kts | 329° |
| 2026-04-21 13:43 | 55.55052 | -3.62749 | 10694 ft | 317 kts | 329° |
| 2026-04-21 13:43 | 55.56858 | -3.64851 | 10090 ft | 309 kts | 329° |
| 2026-04-21 13:43 | 55.58613 | -3.66895 | 9458 ft | 297 kts | 329° |
| 2026-04-21 13:44 | 55.60300 | -3.68870 | 8807 ft | 286 kts | 329° |
| 2026-04-21 13:44 | 55.61928 | -3.70786 | 8222 ft | 276 kts | 329° |
| 2026-04-21 13:44 | 55.63081 | -3.72144 | 7777 ft | 270 kts | 329° |
| 2026-04-21 13:44 | 55.63459 | -3.72591 | 7660 ft | 273 kts | 329° |
| 2026-04-21 13:45 | 55.63889 | -3.73101 | 7515 ft | 275 kts | 329° |
| 2026-04-21 13:45 | 55.65502 | -3.75009 | 6980 ft | 283 kts | 329° |
| 2026-04-21 13:45 | 55.67164 | -3.76973 | 6405 ft | 292 kts | 329° |
| 2026-04-21 13:46 | 55.68845 | -3.78965 | 5792 ft | 287 kts | 329° |
| 2026-04-21 13:46 | 55.70471 | -3.80904 | 5170 ft | 276 kts | 329° |
| 2026-04-21 13:46 | 55.72054 | -3.82715 | 4526 ft | 265 kts | 335° |
| 2026-04-21 13:46 | 55.73668 | -3.84056 | 4106 ft | 243 kts | 352° |
| 2026-04-21 13:47 | 55.75231 | -3.84067 | 3966 ft | 215 kts | 23° |
| 2026-04-21 13:47 | 55.76607 | -3.83137 | 3958 ft | 209 kts | 28° |
| 2026-04-21 13:47 | 55.77907 | -3.82163 | 3944 ft | 196 kts | 30° |
| 2026-04-21 13:47 | 55.79134 | -3.81256 | 3945 ft | 187 kts | 30° |
| 2026-04-21 13:48 | 55.80131 | -3.79983 | 3954 ft | 173 kts | 57° |
| 2026-04-21 13:48 | 55.80853 | -3.78244 | 3986 ft | 180 kts | 57° |
| 2026-04-21 13:48 | 55.81567 | -3.76484 | 3966 ft | 172 kts | 59° |
| 2026-04-21 13:48 | 55.82218 | -3.74716 | 3968 ft | 170 kts | 61° |
| 2026-04-21 13:49 | 55.82842 | -3.72945 | 3966 ft | 168 kts | 62° |
| 2026-04-21 13:49 | 55.83447 | -3.71194 | 3977 ft | 166 kts | 62° |
| 2026-04-21 13:49 | 55.84048 | -3.69439 | 3986 ft | 166 kts | 62° |
| 2026-04-21 13:49 | 55.84639 | -3.67712 | 3962 ft | 160 kts | 63° |
| 2026-04-21 13:50 | 55.85205 | -3.66052 | 3741 ft | 153 kts | 63° |
| 2026-04-21 13:50 | 55.85745 | -3.64469 | 3554 ft | 148 kts | 63° |
| 2026-04-21 13:50 | 55.86284 | -3.62883 | 3358 ft | 151 kts | 63° |
| 2026-04-21 13:50 | 55.86826 | -3.61290 | 3164 ft | 149 kts | 62° |
| 2026-04-21 13:51 | 55.87359 | -3.59726 | 2939 ft | 147 kts | 62° |
| 2026-04-21 13:51 | 55.87892 | -3.58158 | 2744 ft | 149 kts | 61° |
| 2026-04-21 13:51 | 55.88431 | -3.56578 | 2539 ft | 147 kts | 61° |
| 2026-04-21 13:51 | 55.88964 | -3.55013 | 2337 ft | 149 kts | 62° |
| 2026-04-21 13:52 | 55.89499 | -3.53435 | 2114 ft | 148 kts | 62° |
| 2026-04-21 13:52 | 55.90014 | -3.51924 | 1920 ft | 134 kts | 62° |
| 2026-04-21 13:52 | 55.90497 | -3.50500 | 1759 ft | 133 kts | 60° |
| 2026-04-21 13:52 | 55.90957 | -3.49151 | 1552 ft | 123 kts | 61° |
| 2026-04-21 13:53 | 55.91409 | -3.47850 | 1340 ft | 122 kts | 60° |
| 2026-04-21 13:53 | 55.91858 | -3.46601 | 1090 ft | 120 kts | 61° |
| 2026-04-21 13:53 | 55.92284 | -3.45332 | 954 ft | 116 kts | 61° |
| 2026-04-21 13:53 | 55.92703 | -3.44048 | 850 ft | 122 kts | 60° |
| 2026-04-21 13:54 | 55.93133 | -3.42743 | 716 ft | 122 kts | 59° |
| 2026-04-21 13:54 | 55.93587 | -3.41452 | 465 ft | 118 kts | 61° |
| 2026-04-21 13:54 | 55.93995 | -3.40215 | 309 ft | 122 kts | 60° |
| 2026-04-21 13:54 | 55.94434 | -3.38917 | 237 ft | 124 kts | 58° |
| 2026-04-21 13:55 | 55.94886 | -3.37593 | 123 ft | 126 kts | 59° |
| 2026-04-21 13:55 | 55.95283 | -3.36411 | 112 ft | 76 kts | 57° |
| 2026-04-21 13:55 | 55.95462 | -3.35891 | 114 ft | 40 kts | 58° |
| 2026-04-21 13:55 | 55.95563 | -3.35572 | 115 ft | 19 kts | 84° |
| 2026-04-21 13:56 | 55.95480 | -3.35427 | 118 ft | 10 kts | 152° |
| 2026-04-21 13:56 | 55.95414 | -3.35467 | 116 ft | 12 kts | 230° |
| 2026-04-21 13:56 | 55.95361 | -3.35628 | 117 ft | 18 kts | 241° |
| 2026-04-21 13:56 | 55.95283 | -3.35844 | 116 ft | 24 kts | 238° |
| 2026-04-21 13:57 | 55.95207 | -3.36068 | 117 ft | 11 kts | 239° |
| 2026-04-21 13:57 | 55.95150 | -3.36174 | 117 ft | 11 kts | 180° |
| 2026-04-21 13:57 | 55.95106 | -3.36065 | 117 ft | 12 kts | 112° |
| 2026-04-21 13:57 | 55.95074 | -3.35937 | 118 ft | 5 kts | 135° |
| 2026-04-21 13:58 | 55.95042 | -3.35971 | 117 ft | 7 kts | 240° |
| 2026-04-21 13:58 | 55.95024 | -3.36051 | 116 ft | 4 kts | 249° |
| 2026-04-21 13:58 | 55.95021 | -3.36064 | 117 ft | 0 kts | 248° |